sensor_id;sensor_type;location;lat;lon;timestamp;P1;durP1;ratioP1;P2;durP2;ratioP2
35897;SDS011;21997;47.118;15.346;2022-07-26T00:00:49;14.27;;;12.73;;
35897;SDS011;21997;47.118;15.346;2022-07-26T00:03:14;13.63;;;12.27;;
35897;SDS011;21997;47.118;15.346;2022-07-26T00:05:40;14.07;;;12.77;;
35897;SDS011;21997;47.118;15.346;2022-07-26T00:08:06;13.27;;;12.03;;
35897;SDS011;21997;47.118;15.346;2022-07-26T00:10:36;14.00;;;12.00;;
35897;SDS011;21997;47.118;15.346;2022-07-26T00:13:02;13.70;;;11.47;;
35897;SDS011;21997;47.118;15.346;2022-07-26T00:15:28;12.50;;;11.40;;
35897;SDS011;21997;47.118;15.346;2022-07-26T00:17:53;14.13;;;12.73;;
35897;SDS011;21997;47.118;15.346;2022-07-26T00:20:19;14.10;;;12.57;;
35897;SDS011;21997;47.118;15.346;2022-07-26T00:22:44;13.70;;;12.40;;
35897;SDS011;21997;47.118;15.346;2022-07-26T00:25:09;13.93;;;12.53;;
35897;SDS011;21997;47.118;15.346;2022-07-26T00:27:35;13.03;;;11.63;;
35897;SDS011;21997;47.118;15.346;2022-07-26T00:30:01;14.03;;;12.60;;
35897;SDS011;21997;47.118;15.346;2022-07-26T00:32:26;14.40;;;12.97;;
35897;SDS011;21997;47.118;15.346;2022-07-26T00:34:52;13.40;;;12.10;;
35897;SDS011;21997;47.118;15.346;2022-07-26T00:37:18;14.13;;;12.70;;
35897;SDS011;21997;47.118;15.346;2022-07-26T00:39:44;14.10;;;12.90;;
35897;SDS011;21997;47.118;15.346;2022-07-26T00:42:09;15.57;;;11.90;;
35897;SDS011;21997;47.118;15.346;2022-07-26T00:44:35;14.07;;;12.77;;
35897;SDS011;21997;47.118;15.346;2022-07-26T00:47:02;14.63;;;13.33;;
35897;SDS011;21997;47.118;15.346;2022-07-26T00:49:27;13.27;;;12.00;;
35897;SDS011;21997;47.118;15.346;2022-07-26T00:51:52;14.00;;;12.60;;
35897;SDS011;21997;47.118;15.346;2022-07-26T00:54:18;13.13;;;11.90;;
35897;SDS011;21997;47.118;15.346;2022-07-26T00:56:43;12.03;;;10.83;;
35897;SDS011;21997;47.118;15.346;2022-07-26T00:59:09;12.60;;;11.40;;
35897;SDS011;21997;47.118;15.346;2022-07-26T01:01:34;11.83;;;10.73;;
35897;SDS011;21997;47.118;15.346;2022-07-26T01:04:00;10.17;;;9.17;;
35897;SDS011;21997;47.118;15.346;2022-07-26T01:06:25;9.53;;;8.70;;
35897;SDS011;21997;47.118;15.346;2022-07-26T01:08:51;9.13;;;8.33;;
35897;SDS011;21997;47.118;15.346;2022-07-26T01:11:19;8.37;;;7.57;;
35897;SDS011;21997;47.118;15.346;2022-07-26T01:13:45;8.23;;;7.47;;
35897;SDS011;21997;47.118;15.346;2022-07-26T01:16:11;8.93;;;7.53;;
35897;SDS011;21997;47.118;15.346;2022-07-26T01:18:37;8.03;;;5.90;;
35897;SDS011;21997;47.118;15.346;2022-07-26T01:21:02;7.07;;;5.37;;
35897;SDS011;21997;47.118;15.346;2022-07-26T01:23:28;6.40;;;5.80;;
35897;SDS011;21997;47.118;15.346;2022-07-26T01:25:55;6.03;;;5.40;;
35897;SDS011;21997;47.118;15.346;2022-07-26T01:28:20;6.33;;;5.70;;
35897;SDS011;21997;47.118;15.346;2022-07-26T01:30:46;6.30;;;5.70;;
35897;SDS011;21997;47.118;15.346;2022-07-26T01:33:13;6.83;;;6.13;;
35897;SDS011;21997;47.118;15.346;2022-07-26T01:35:38;7.17;;;5.80;;
35897;SDS011;21997;47.118;15.346;2022-07-26T01:38:04;6.03;;;5.53;;
35897;SDS011;21997;47.118;15.346;2022-07-26T01:40:29;7.57;;;5.53;;
35897;SDS011;21997;47.118;15.346;2022-07-26T01:42:54;5.90;;;5.40;;
35897;SDS011;21997;47.118;15.346;2022-07-26T01:45:20;5.90;;;5.40;;
35897;SDS011;21997;47.118;15.346;2022-07-26T01:47:45;5.77;;;5.00;;
35897;SDS011;21997;47.118;15.346;2022-07-26T01:50:14;5.43;;;4.93;;
35897;SDS011;21997;47.118;15.346;2022-07-26T01:52:39;5.93;;;5.40;;
35897;SDS011;21997;47.118;15.346;2022-07-26T01:55:05;4.93;;;4.53;;
35897;SDS011;21997;47.118;15.346;2022-07-26T01:57:30;5.27;;;4.77;;
35897;SDS011;21997;47.118;15.346;2022-07-26T01:59:55;4.77;;;4.37;;
35897;SDS011;21997;47.118;15.346;2022-07-26T02:02:21;6.80;;;4.90;;
35897;SDS011;21997;47.118;15.346;2022-07-26T02:04:46;4.40;;;4.00;;
35897;SDS011;21997;47.118;15.346;2022-07-26T02:07:24;3.80;;;3.40;;
35897;SDS011;21997;47.118;15.346;2022-07-26T02:09:50;5.57;;;3.93;;
35897;SDS011;21997;47.118;15.346;2022-07-26T02:12:16;4.27;;;3.87;;
35897;SDS011;21997;47.118;15.346;2022-07-26T02:14:41;3.80;;;3.40;;
35897;SDS011;21997;47.118;15.346;2022-07-26T02:17:07;3.63;;;3.33;;
35897;SDS011;21997;47.118;15.346;2022-07-26T02:19:32;3.00;;;2.77;;
35897;SDS011;21997;47.118;15.346;2022-07-26T02:21:58;3.23;;;2.97;;
35897;SDS011;21997;47.118;15.346;2022-07-26T02:24:23;3.20;;;2.90;;
35897;SDS011;21997;47.118;15.346;2022-07-26T02:26:52;2.63;;;2.43;;
35897;SDS011;21997;47.118;15.346;2022-07-26T02:29:18;2.83;;;2.50;;
35897;SDS011;21997;47.118;15.346;2022-07-26T02:31:44;3.10;;;2.60;;
35897;SDS011;21997;47.118;15.346;2022-07-26T02:34:09;2.83;;;2.23;;
35897;SDS011;21997;47.118;15.346;2022-07-26T02:36:34;2.50;;;1.97;;
35897;SDS011;21997;47.118;15.346;2022-07-26T02:39:00;2.23;;;2.03;;
35897;SDS011;21997;47.118;15.346;2022-07-26T02:41:25;2.23;;;2.03;;
35897;SDS011;21997;47.118;15.346;2022-07-26T02:43:50;2.87;;;2.30;;
35897;SDS011;21997;47.118;15.346;2022-07-26T02:46:16;3.37;;;1.83;;
35897;SDS011;21997;47.118;15.346;2022-07-26T02:48:41;2.50;;;2.30;;
35897;SDS011;21997;47.118;15.346;2022-07-26T02:51:07;2.87;;;2.40;;
35897;SDS011;21997;47.118;15.346;2022-07-26T02:53:32;2.30;;;2.10;;
35897;SDS011;21997;47.118;15.346;2022-07-26T02:55:57;2.43;;;2.23;;
35897;SDS011;21997;47.118;15.346;2022-07-26T02:58:23;2.50;;;2.23;;
35897;SDS011;21997;47.118;15.346;2022-07-26T03:00:50;2.37;;;2.17;;
35897;SDS011;21997;47.118;15.346;2022-07-26T03:03:16;2.50;;;2.30;;
35897;SDS011;21997;47.118;15.346;2022-07-26T03:05:41;2.23;;;2.03;;
35897;SDS011;21997;47.118;15.346;2022-07-26T03:08:07;2.30;;;2.10;;
35897;SDS011;21997;47.118;15.346;2022-07-26T03:10:32;2.50;;;2.07;;
35897;SDS011;21997;47.118;15.346;2022-07-26T03:12:58;2.27;;;2.07;;
35897;SDS011;21997;47.118;15.346;2022-07-26T03:15:23;2.90;;;2.30;;
35897;SDS011;21997;47.118;15.346;2022-07-26T03:17:49;2.40;;;2.20;;
35897;SDS011;21997;47.118;15.346;2022-07-26T03:20:14;2.33;;;2.13;;
35897;SDS011;21997;47.118;15.346;2022-07-26T03:22:40;2.80;;;2.47;;
35897;SDS011;21997;47.118;15.346;2022-07-26T03:25:05;3.27;;;1.93;;
35897;SDS011;21997;47.118;15.346;2022-07-26T03:27:31;3.03;;;2.40;;
35897;SDS011;21997;47.118;15.346;2022-07-26T03:29:56;2.63;;;2.20;;
35897;SDS011;21997;47.118;15.346;2022-07-26T03:32:22;2.30;;;2.10;;
35897;SDS011;21997;47.118;15.346;2022-07-26T03:34:47;2.63;;;2.27;;
35897;SDS011;21997;47.118;15.346;2022-07-26T03:37:12;2.90;;;2.60;;
35897;SDS011;21997;47.118;15.346;2022-07-26T03:39:38;2.30;;;2.10;;
35897;SDS011;21997;47.118;15.346;2022-07-26T03:42:04;2.70;;;2.50;;
35897;SDS011;21997;47.118;15.346;2022-07-26T03:44:30;2.60;;;2.40;;
35897;SDS011;21997;47.118;15.346;2022-07-26T03:46:55;2.37;;;1.93;;
35897;SDS011;21997;47.118;15.346;2022-07-26T03:49:21;2.37;;;2.17;;
35897;SDS011;21997;47.118;15.346;2022-07-26T03:51:46;2.07;;;1.80;;
35897;SDS011;21997;47.118;15.346;2022-07-26T03:54:12;2.47;;;2.27;;
35897;SDS011;21997;47.118;15.346;2022-07-26T03:56:38;2.97;;;2.27;;
35897;SDS011;21997;47.118;15.346;2022-07-26T03:59:05;3.97;;;2.10;;
35897;SDS011;21997;47.118;15.346;2022-07-26T04:01:34;2.50;;;2.30;;
35897;SDS011;21997;47.118;15.346;2022-07-26T04:04:01;2.70;;;2.40;;
35897;SDS011;21997;47.118;15.346;2022-07-26T04:06:26;2.20;;;2.00;;
35897;SDS011;21997;47.118;15.346;2022-07-26T04:08:52;2.87;;;1.50;;
35897;SDS011;21997;47.118;15.346;2022-07-26T04:11:18;2.33;;;2.13;;
35897;SDS011;21997;47.118;15.346;2022-07-26T04:13:43;2.17;;;2.00;;
35897;SDS011;21997;47.118;15.346;2022-07-26T04:16:09;3.40;;;2.27;;
35897;SDS011;21997;47.118;15.346;2022-07-26T04:18:34;1.80;;;1.70;;
35897;SDS011;21997;47.118;15.346;2022-07-26T04:21:00;3.33;;;2.13;;
35897;SDS011;21997;47.118;15.346;2022-07-26T04:23:25;2.40;;;2.20;;
35897;SDS011;21997;47.118;15.346;2022-07-26T04:25:50;1.93;;;1.70;;
35897;SDS011;21997;47.118;15.346;2022-07-26T04:28:16;2.20;;;2.00;;
35897;SDS011;21997;47.118;15.346;2022-07-26T04:30:41;2.37;;;2.03;;
35897;SDS011;21997;47.118;15.346;2022-07-26T04:33:07;2.10;;;1.90;;
35897;SDS011;21997;47.118;15.346;2022-07-26T04:35:32;1.80;;;1.70;;
35897;SDS011;21997;47.118;15.346;2022-07-26T04:37:58;2.83;;;2.37;;
35897;SDS011;21997;47.118;15.346;2022-07-26T04:40:24;2.13;;;1.93;;
35897;SDS011;21997;47.118;15.346;2022-07-26T04:42:52;2.00;;;1.77;;
35897;SDS011;21997;47.118;15.346;2022-07-26T04:45:18;3.47;;;1.93;;
35897;SDS011;21997;47.118;15.346;2022-07-26T04:47:44;1.93;;;1.80;;
35897;SDS011;21997;47.118;15.346;2022-07-26T04:50:10;1.70;;;1.60;;
35897;SDS011;21997;47.118;15.346;2022-07-26T04:52:36;2.60;;;1.60;;
35897;SDS011;21997;47.118;15.346;2022-07-26T04:55:01;1.67;;;1.57;;
35897;SDS011;21997;47.118;15.346;2022-07-26T04:57:27;1.90;;;1.80;;
35897;SDS011;21997;47.118;15.346;2022-07-26T04:59:52;1.70;;;1.60;;
35897;SDS011;21997;47.118;15.346;2022-07-26T05:02:18;1.90;;;1.80;;
35897;SDS011;21997;47.118;15.346;2022-07-26T05:04:43;1.73;;;1.63;;
35897;SDS011;21997;47.118;15.346;2022-07-26T05:07:09;1.60;;;1.50;;
35897;SDS011;21997;47.118;15.346;2022-07-26T05:09:34;2.43;;;1.70;;
35897;SDS011;21997;47.118;15.346;2022-07-26T05:12:00;2.77;;;1.40;;
35897;SDS011;21997;47.118;15.346;2022-07-26T05:14:25;2.10;;;1.63;;
35897;SDS011;21997;47.118;15.346;2022-07-26T05:16:51;1.80;;;1.30;;
35897;SDS011;21997;47.118;15.346;2022-07-26T05:19:16;1.60;;;1.50;;
35897;SDS011;21997;47.118;15.346;2022-07-26T05:21:41;1.43;;;1.33;;
35897;SDS011;21997;47.118;15.346;2022-07-26T05:24:07;6.53;;;1.90;;
35897;SDS011;21997;47.118;15.346;2022-07-26T05:26:32;1.50;;;1.40;;
35897;SDS011;21997;47.118;15.346;2022-07-26T05:28:58;2.70;;;1.50;;
35897;SDS011;21997;47.118;15.346;2022-07-26T05:31:23;7.93;;;2.03;;
35897;SDS011;21997;47.118;15.346;2022-07-26T05:33:49;2.90;;;1.60;;
35897;SDS011;21997;47.118;15.346;2022-07-26T05:36:14;2.87;;;2.10;;
35897;SDS011;21997;47.118;15.346;2022-07-26T05:38:40;2.30;;;1.80;;
35897;SDS011;21997;47.118;15.346;2022-07-26T05:41:06;5.23;;;2.33;;
35897;SDS011;21997;47.118;15.346;2022-07-26T05:43:31;14.93;;;2.37;;
35897;SDS011;21997;47.118;15.346;2022-07-26T05:45:57;1.87;;;1.60;;
35897;SDS011;21997;47.118;15.346;2022-07-26T05:48:22;2.23;;;1.53;;
35897;SDS011;21997;47.118;15.346;2022-07-26T05:50:48;1.33;;;1.20;;
35897;SDS011;21997;47.118;15.346;2022-07-26T05:53:14;2.67;;;2.00;;
35897;SDS011;21997;47.118;15.346;2022-07-26T05:55:39;6.67;;;1.60;;
35897;SDS011;21997;47.118;15.346;2022-07-26T05:58:04;1.80;;;1.70;;
35897;SDS011;21997;47.118;15.346;2022-07-26T06:00:30;2.07;;;1.87;;
35897;SDS011;21997;47.118;15.346;2022-07-26T06:02:55;3.97;;;2.10;;
35897;SDS011;21997;47.118;15.346;2022-07-26T06:05:21;1.67;;;1.57;;
35897;SDS011;21997;47.118;15.346;2022-07-26T06:07:46;6.77;;;1.87;;
35897;SDS011;21997;47.118;15.346;2022-07-26T06:10:11;2.27;;;1.27;;
35897;SDS011;21997;47.118;15.346;2022-07-26T06:12:37;1.87;;;1.50;;
35897;SDS011;21997;47.118;15.346;2022-07-26T06:15:03;2.63;;;1.70;;
35897;SDS011;21997;47.118;15.346;2022-07-26T06:17:29;2.60;;;1.50;;
35897;SDS011;21997;47.118;15.346;2022-07-26T06:19:55;1.83;;;1.43;;
35897;SDS011;21997;47.118;15.346;2022-07-26T06:22:36;2.27;;;1.70;;
35897;SDS011;21997;47.118;15.346;2022-07-26T06:25:01;3.20;;;1.80;;
35897;SDS011;21997;47.118;15.346;2022-07-26T06:27:26;2.67;;;2.03;;
35897;SDS011;21997;47.118;15.346;2022-07-26T06:29:52;3.00;;;2.03;;
35897;SDS011;21997;47.118;15.346;2022-07-26T06:32:18;1.97;;;1.53;;
35897;SDS011;21997;47.118;15.346;2022-07-26T06:34:44;2.37;;;1.93;;
35897;SDS011;21997;47.118;15.346;2022-07-26T06:37:09;2.10;;;1.90;;
35897;SDS011;21997;47.118;15.346;2022-07-26T06:39:34;2.47;;;2.27;;
35897;SDS011;21997;47.118;15.346;2022-07-26T06:42:00;2.03;;;1.50;;
35897;SDS011;21997;47.118;15.346;2022-07-26T06:44:25;2.37;;;1.90;;
35897;SDS011;21997;47.118;15.346;2022-07-26T06:46:50;2.20;;;1.60;;
35897;SDS011;21997;47.118;15.346;2022-07-26T06:49:16;1.30;;;1.20;;
35897;SDS011;21997;47.118;15.346;2022-07-26T06:51:41;1.73;;;1.50;;
35897;SDS011;21997;47.118;15.346;2022-07-26T06:54:07;1.60;;;1.50;;
35897;SDS011;21997;47.118;15.346;2022-07-26T06:56:32;1.37;;;1.17;;
35897;SDS011;21997;47.118;15.346;2022-07-26T06:58:57;1.60;;;1.50;;
35897;SDS011;21997;47.118;15.346;2022-07-26T07:01:23;3.30;;;2.23;;
35897;SDS011;21997;47.118;15.346;2022-07-26T07:03:48;3.37;;;2.40;;
35897;SDS011;21997;47.118;15.346;2022-07-26T07:06:14;2.20;;;2.00;;
35897;SDS011;21997;47.118;15.346;2022-07-26T07:08:39;2.23;;;1.80;;
35897;SDS011;21997;47.118;15.346;2022-07-26T07:11:05;1.70;;;1.60;;
35897;SDS011;21997;47.118;15.346;2022-07-26T07:13:30;2.83;;;1.60;;
35897;SDS011;21997;47.118;15.346;2022-07-26T07:15:55;5.60;;;1.87;;
35897;SDS011;21997;47.118;15.346;2022-07-26T07:18:21;1.43;;;1.33;;
35897;SDS011;21997;47.118;15.346;2022-07-26T07:20:47;2.20;;;1.83;;
35897;SDS011;21997;47.118;15.346;2022-07-26T07:23:12;2.03;;;1.80;;
35897;SDS011;21997;47.118;15.346;2022-07-26T07:25:37;1.87;;;1.60;;
35897;SDS011;21997;47.118;15.346;2022-07-26T07:28:03;2.57;;;1.87;;
35897;SDS011;21997;47.118;15.346;2022-07-26T07:30:28;2.17;;;1.97;;
35897;SDS011;21997;47.118;15.346;2022-07-26T07:32:54;4.20;;;1.67;;
35897;SDS011;21997;47.118;15.346;2022-07-26T07:35:20;1.80;;;1.50;;
35897;SDS011;21997;47.118;15.346;2022-07-26T07:37:45;1.87;;;1.33;;
35897;SDS011;21997;47.118;15.346;2022-07-26T07:40:10;2.17;;;1.50;;
35897;SDS011;21997;47.118;15.346;2022-07-26T07:42:36;2.53;;;1.70;;
35897;SDS011;21997;47.118;15.346;2022-07-26T07:45:02;1.90;;;1.73;;
35897;SDS011;21997;47.118;15.346;2022-07-26T07:47:28;3.00;;;1.90;;
35897;SDS011;21997;47.118;15.346;2022-07-26T07:49:57;3.07;;;2.00;;
35897;SDS011;21997;47.118;15.346;2022-07-26T07:52:22;4.53;;;1.97;;
35897;SDS011;21997;47.118;15.346;2022-07-26T07:54:48;2.87;;;1.70;;
35897;SDS011;21997;47.118;15.346;2022-07-26T07:57:13;3.93;;;3.30;;
35897;SDS011;21997;47.118;15.346;2022-07-26T07:59:39;4.60;;;1.90;;
35897;SDS011;21997;47.118;15.346;2022-07-26T08:02:04;1.70;;;1.40;;
35897;SDS011;21997;47.118;15.346;2022-07-26T08:04:30;1.57;;;1.30;;
35897;SDS011;21997;47.118;15.346;2022-07-26T08:06:55;3.47;;;1.90;;
35897;SDS011;21997;47.118;15.346;2022-07-26T08:09:21;2.07;;;1.43;;
35897;SDS011;21997;47.118;15.346;2022-07-26T08:11:47;1.77;;;1.40;;
35897;SDS011;21997;47.118;15.346;2022-07-26T08:14:12;1.57;;;1.43;;
35897;SDS011;21997;47.118;15.346;2022-07-26T08:16:38;2.00;;;1.27;;
35897;SDS011;21997;47.118;15.346;2022-07-26T08:19:03;2.13;;;1.50;;
35897;SDS011;21997;47.118;15.346;2022-07-26T08:21:29;1.63;;;1.33;;
35897;SDS011;21997;47.118;15.346;2022-07-26T08:23:55;2.60;;;1.87;;
35897;SDS011;21997;47.118;15.346;2022-07-26T08:26:21;4.97;;;1.90;;
35897;SDS011;21997;47.118;15.346;2022-07-26T08:28:46;2.27;;;1.93;;
35897;SDS011;21997;47.118;15.346;2022-07-26T08:31:12;3.57;;;2.20;;
35897;SDS011;21997;47.118;15.346;2022-07-26T08:33:37;2.67;;;1.57;;
35897;SDS011;21997;47.118;15.346;2022-07-26T08:36:02;3.03;;;1.70;;
35897;SDS011;21997;47.118;15.346;2022-07-26T08:38:28;4.37;;;1.77;;
35897;SDS011;21997;47.118;15.346;2022-07-26T08:40:53;4.80;;;2.00;;
35897;SDS011;21997;47.118;15.346;2022-07-26T08:43:19;3.40;;;2.40;;
35897;SDS011;21997;47.118;15.346;2022-07-26T08:45:44;4.33;;;2.30;;
35897;SDS011;21997;47.118;15.346;2022-07-26T08:48:11;2.37;;;2.17;;
35897;SDS011;21997;47.118;15.346;2022-07-26T08:50:37;2.87;;;2.67;;
35897;SDS011;21997;47.118;15.346;2022-07-26T08:53:03;3.70;;;2.60;;
35897;SDS011;21997;47.118;15.346;2022-07-26T08:55:33;4.60;;;2.40;;
35897;SDS011;21997;47.118;15.346;2022-07-26T08:58:00;5.23;;;2.77;;
35897;SDS011;21997;47.118;15.346;2022-07-26T09:00:27;5.20;;;3.27;;
35897;SDS011;21997;47.118;15.346;2022-07-26T09:02:54;5.47;;;2.47;;
35897;SDS011;21997;47.118;15.346;2022-07-26T09:05:27;3.60;;;3.03;;
35897;SDS011;21997;47.118;15.346;2022-07-26T09:07:55;6.07;;;3.37;;
35897;SDS011;21997;47.118;15.346;2022-07-26T09:10:21;3.90;;;2.80;;
35897;SDS011;21997;47.118;15.346;2022-07-26T09:12:51;5.13;;;2.80;;
35897;SDS011;21997;47.118;15.346;2022-07-26T09:15:21;3.00;;;2.60;;
35897;SDS011;21997;47.118;15.346;2022-07-26T09:17:50;3.57;;;2.73;;
35897;SDS011;21997;47.118;15.346;2022-07-26T09:20:19;6.07;;;3.03;;
35897;SDS011;21997;47.118;15.346;2022-07-26T09:23:07;3.37;;;2.50;;
35897;SDS011;21997;47.118;15.346;2022-07-26T09:25:34;3.03;;;2.63;;
35897;SDS011;21997;47.118;15.346;2022-07-26T09:28:02;2.33;;;2.13;;
35897;SDS011;21997;47.118;15.346;2022-07-26T09:30:29;3.57;;;2.50;;
35897;SDS011;21997;47.118;15.346;2022-07-26T09:33:00;2.43;;;2.23;;
35897;SDS011;21997;47.118;15.346;2022-07-26T09:35:30;2.30;;;2.10;;
35897;SDS011;21997;47.118;15.346;2022-07-26T09:37:57;3.87;;;2.90;;
35897;SDS011;21997;47.118;15.346;2022-07-26T09:40:26;4.83;;;3.33;;
35897;SDS011;21997;47.118;15.346;2022-07-26T09:42:57;2.33;;;1.77;;
35897;SDS011;21997;47.118;15.346;2022-07-26T09:45:30;5.40;;;2.17;;
35897;SDS011;21997;47.118;15.346;2022-07-26T09:47:57;2.20;;;1.80;;
35897;SDS011;21997;47.118;15.346;2022-07-26T09:50:24;2.03;;;1.63;;
35897;SDS011;21997;47.118;15.346;2022-07-26T09:52:59;4.93;;;1.90;;
35897;SDS011;21997;47.118;15.346;2022-07-26T09:55:35;3.20;;;2.10;;
35897;SDS011;21997;47.118;15.346;2022-07-26T09:58:13;4.20;;;1.97;;
35897;SDS011;21997;47.118;15.346;2022-07-26T10:00:39;4.17;;;1.90;;
35897;SDS011;21997;47.118;15.346;2022-07-26T10:03:05;5.20;;;1.80;;
35897;SDS011;21997;47.118;15.346;2022-07-26T10:05:31;2.03;;;1.83;;
35897;SDS011;21997;47.118;15.346;2022-07-26T10:07:57;3.57;;;2.00;;
35897;SDS011;21997;47.118;15.346;2022-07-26T10:10:27;2.33;;;2.00;;
35897;SDS011;21997;47.118;15.346;2022-07-26T10:12:56;2.80;;;1.80;;
35897;SDS011;21997;47.118;15.346;2022-07-26T10:15:32;2.47;;;1.80;;
35897;SDS011;21997;47.118;15.346;2022-07-26T10:17:59;1.80;;;1.70;;
35897;SDS011;21997;47.118;15.346;2022-07-26T10:21:09;2.17;;;1.97;;
35897;SDS011;21997;47.118;15.346;2022-07-26T10:26:12;2.90;;;1.77;;
35897;SDS011;21997;47.118;15.346;2022-07-26T10:31:41;3.10;;;1.60;;
35897;SDS011;21997;47.118;15.346;2022-07-26T10:34:34;2.40;;;1.67;;
35897;SDS011;21997;47.118;15.346;2022-07-26T10:37:02;2.20;;;1.40;;
35897;SDS011;21997;47.118;15.346;2022-07-26T10:39:29;3.13;;;1.67;;
35897;SDS011;21997;47.118;15.346;2022-07-26T10:41:58;1.53;;;1.37;;
35897;SDS011;21997;47.118;15.346;2022-07-26T10:44:29;1.93;;;1.47;;
35897;SDS011;21997;47.118;15.346;2022-07-26T10:49:56;4.80;;;1.80;;
35897;SDS011;21997;47.118;15.346;2022-07-26T10:52:29;10.23;;;5.23;;
35897;SDS011;21997;47.118;15.346;2022-07-26T10:57:20;2.60;;;1.70;;
35897;SDS011;21997;47.118;15.346;2022-07-26T10:59:56;4.00;;;1.60;;
35897;SDS011;21997;47.118;15.346;2022-07-26T11:02:25;2.75;;;1.50;;
35897;SDS011;21997;47.118;15.346;2022-07-26T11:04:58;1.55;;;1.45;;
35897;SDS011;21997;47.118;15.346;2022-07-26T11:07:25;1.63;;;1.52;;
35897;SDS011;21997;47.118;15.346;2022-07-26T11:09:53;1.50;;;1.40;;
35897;SDS011;21997;47.118;15.346;2022-07-26T11:12:20;1.73;;;1.40;;
35897;SDS011;21997;47.118;15.346;2022-07-26T11:14:45;1.80;;;1.40;;
35897;SDS011;21997;47.118;15.346;2022-07-26T11:17:27;1.63;;;1.50;;
35897;SDS011;21997;47.118;15.346;2022-07-26T11:19:54;4.30;;;1.50;;
35897;SDS011;21997;47.118;15.346;2022-07-26T11:22:20;2.78;;;1.52;;
35897;SDS011;21997;47.118;15.346;2022-07-26T11:24:46;2.35;;;1.40;;
35897;SDS011;21997;47.118;15.346;2022-07-26T11:27:12;1.42;;;1.33;;
35897;SDS011;21997;47.118;15.346;2022-07-26T11:29:38;4.63;;;2.17;;
35897;SDS011;21997;47.118;15.346;2022-07-26T11:32:04;3.30;;;1.70;;
35897;SDS011;21997;47.118;15.346;2022-07-26T11:34:31;2.33;;;1.60;;
35897;SDS011;21997;47.118;15.346;2022-07-26T11:36:58;2.58;;;1.30;;
35897;SDS011;21997;47.118;15.346;2022-07-26T11:39:29;2.65;;;1.40;;
35897;SDS011;21997;47.118;15.346;2022-07-26T11:42:00;2.63;;;1.58;;
35897;SDS011;21997;47.118;15.346;2022-07-26T11:44:29;2.03;;;1.60;;
35897;SDS011;21997;47.118;15.346;2022-07-26T11:46:55;2.22;;;1.80;;
35897;SDS011;21997;47.118;15.346;2022-07-26T11:49:28;1.83;;;1.52;;
35897;SDS011;21997;47.118;15.346;2022-07-26T11:51:55;1.85;;;1.50;;
35897;SDS011;21997;47.118;15.346;2022-07-26T11:54:22;6.10;;;3.13;;
35897;SDS011;21997;47.118;15.346;2022-07-26T11:56:53;1.88;;;1.50;;
35897;SDS011;21997;47.118;15.346;2022-07-26T11:59:19;2.20;;;1.90;;
35897;SDS011;21997;47.118;15.346;2022-07-26T12:01:45;2.05;;;1.73;;
35897;SDS011;21997;47.118;15.346;2022-07-26T12:04:18;4.28;;;1.85;;
35897;SDS011;21997;47.118;15.346;2022-07-26T12:06:48;9.68;;;2.63;;
35897;SDS011;21997;47.118;15.346;2022-07-26T12:09:28;2.47;;;1.80;;
35897;SDS011;21997;47.118;15.346;2022-07-26T12:12:01;2.35;;;1.75;;
35897;SDS011;21997;47.118;15.346;2022-07-26T12:14:29;6.45;;;2.08;;
35897;SDS011;21997;47.118;15.346;2022-07-26T12:16:55;2.20;;;1.70;;
35897;SDS011;21997;47.118;15.346;2022-07-26T12:21:48;2.83;;;1.88;;
35897;SDS011;21997;47.118;15.346;2022-07-26T12:27:07;1.90;;;1.80;;
35897;SDS011;21997;47.118;15.346;2022-07-26T12:29:36;3.88;;;1.67;;
35897;SDS011;21997;47.118;15.346;2022-07-26T12:32:12;4.80;;;2.25;;
35897;SDS011;21997;47.118;15.346;2022-07-26T12:34:53;1.80;;;1.60;;
35897;SDS011;21997;47.118;15.346;2022-07-26T12:37:29;3.53;;;1.80;;
35897;SDS011;21997;47.118;15.346;2022-07-26T12:40:15;3.00;;;1.98;;
35897;SDS011;21997;47.118;15.346;2022-07-26T12:42:42;4.70;;;1.55;;
35897;SDS011;21997;47.118;15.346;2022-07-26T12:45:15;1.92;;;1.80;;
35897;SDS011;21997;47.118;15.346;2022-07-26T12:47:45;2.22;;;2.03;;
35897;SDS011;21997;47.118;15.346;2022-07-26T12:50:12;2.88;;;1.85;;
35897;SDS011;21997;47.118;15.346;2022-07-26T12:52:38;2.17;;;2.08;;
35897;SDS011;21997;47.118;15.346;2022-07-26T12:55:05;2.58;;;2.33;;
35897;SDS011;21997;47.118;15.346;2022-07-26T12:57:32;3.05;;;1.92;;
35897;SDS011;21997;47.118;15.346;2022-07-26T12:59:57;2.33;;;2.08;;
35897;SDS011;21997;47.118;15.346;2022-07-26T13:02:23;2.20;;;1.88;;
35897;SDS011;21997;47.118;15.346;2022-07-26T13:04:49;3.10;;;2.35;;
35897;SDS011;21997;47.118;15.346;2022-07-26T13:07:15;3.17;;;1.55;;
35897;SDS011;21997;47.118;15.346;2022-07-26T13:09:42;2.78;;;2.10;;
35897;SDS011;21997;47.118;15.346;2022-07-26T13:12:08;2.00;;;1.67;;
35897;SDS011;21997;47.118;15.346;2022-07-26T13:14:36;2.85;;;1.67;;
35897;SDS011;21997;47.118;15.346;2022-07-26T13:17:02;2.70;;;1.83;;
35897;SDS011;21997;47.118;15.346;2022-07-26T13:19:28;2.10;;;1.90;;
35897;SDS011;21997;47.118;15.346;2022-07-26T13:21:55;3.15;;;2.10;;
35897;SDS011;21997;47.118;15.346;2022-07-26T13:24:21;2.42;;;2.22;;
35897;SDS011;21997;47.118;15.346;2022-07-26T13:26:46;3.17;;;1.83;;
35897;SDS011;21997;47.118;15.346;2022-07-26T13:29:12;7.15;;;2.20;;
35897;SDS011;21997;47.118;15.346;2022-07-26T13:31:37;3.17;;;2.00;;
35897;SDS011;21997;47.118;15.346;2022-07-26T13:34:03;2.03;;;1.63;;
35897;SDS011;21997;47.118;15.346;2022-07-26T13:36:29;1.95;;;1.75;;
35897;SDS011;21997;47.118;15.346;2022-07-26T13:38:54;1.95;;;1.70;;
35897;SDS011;21997;47.118;15.346;2022-07-26T13:41:20;1.73;;;1.63;;
35897;SDS011;21997;47.118;15.346;2022-07-26T13:43:45;2.20;;;1.88;;
35897;SDS011;21997;47.118;15.346;2022-07-26T13:46:10;2.05;;;1.83;;
35897;SDS011;21997;47.118;15.346;2022-07-26T13:48:36;1.95;;;1.75;;
35897;SDS011;21997;47.118;15.346;2022-07-26T13:51:01;2.80;;;1.65;;
35897;SDS011;21997;47.118;15.346;2022-07-26T13:53:26;7.25;;;2.25;;
35897;SDS011;21997;47.118;15.346;2022-07-26T13:55:53;4.05;;;1.98;;
35897;SDS011;21997;47.118;15.346;2022-07-26T13:58:19;2.25;;;1.95;;
35897;SDS011;21997;47.118;15.346;2022-07-26T14:00:45;2.45;;;2.25;;
35897;SDS011;21997;47.118;15.346;2022-07-26T14:03:11;2.65;;;2.38;;
35897;SDS011;21997;47.118;15.346;2022-07-26T14:05:37;2.53;;;2.03;;
35897;SDS011;21997;47.118;15.346;2022-07-26T14:08:02;2.13;;;1.95;;
35897;SDS011;21997;47.118;15.346;2022-07-26T14:10:28;3.80;;;2.15;;
35897;SDS011;21997;47.118;15.346;2022-07-26T14:12:53;2.08;;;1.92;;
35897;SDS011;21997;47.118;15.346;2022-07-26T14:15:18;2.03;;;1.83;;
35897;SDS011;21997;47.118;15.346;2022-07-26T14:17:44;4.00;;;1.80;;
35897;SDS011;21997;47.118;15.346;2022-07-26T14:20:11;6.03;;;1.85;;
35897;SDS011;21997;47.118;15.346;2022-07-26T14:22:37;4.00;;;1.80;;
35897;SDS011;21997;47.118;15.346;2022-07-26T14:25:02;2.30;;;2.03;;
35897;SDS011;21997;47.118;15.346;2022-07-26T14:27:29;2.67;;;2.05;;
35897;SDS011;21997;47.118;15.346;2022-07-26T14:29:55;4.20;;;1.70;;
35897;SDS011;21997;47.118;15.346;2022-07-26T14:32:20;2.00;;;1.90;;
35897;SDS011;21997;47.118;15.346;2022-07-26T14:34:46;2.63;;;2.05;;
35897;SDS011;21997;47.118;15.346;2022-07-26T14:37:11;2.35;;;1.90;;
35897;SDS011;21997;47.118;15.346;2022-07-26T14:39:36;1.83;;;1.60;;
35897;SDS011;21997;47.118;15.346;2022-07-26T14:42:02;3.22;;;1.98;;
35897;SDS011;21997;47.118;15.346;2022-07-26T14:44:28;1.92;;;1.77;;
35897;SDS011;21997;47.118;15.346;2022-07-26T14:46:54;2.30;;;1.83;;